createdAt,value
2022-11-23T00:00:24.077Z,97545.92
2022-11-23T00:05:27.858Z,97543.59
2022-11-23T00:10:29.701Z,97545.01
2022-11-23T00:15:32.597Z,97544.79
2022-11-23T00:20:34.451Z,97548.10
2022-11-23T00:25:36.489Z,97548.89
2022-11-23T00:30:38.517Z,97544.66
2022-11-23T00:35:40.378Z,97543.75
2022-11-23T00:40:42.233Z,97544.55
2022-11-23T00:45:44.324Z,97534.65
2022-11-23T00:50:46.158Z,97535.70
2022-11-23T00:55:55.518Z,97528.45
2022-11-23T01:01:12.841Z,97527.38
2022-11-23T01:06:17.862Z,97523.02
2022-11-23T01:11:21.901Z,97518.20
2022-11-23T01:16:29.665Z,97521.72
2022-11-23T01:21:33.460Z,97525.02
2022-11-23T01:26:35.333Z,97525.09
2022-11-23T01:31:40.600Z,97520.52
2022-11-23T01:36:49.037Z,97526.00
2022-11-23T01:41:50.936Z,97525.34
2022-11-23T01:46:52.936Z,97518.98
2022-11-23T01:51:59.744Z,97520.80
2022-11-23T01:57:06.629Z,97522.97
2022-11-23T02:02:08.718Z,97525.00
2022-11-23T02:07:11.627Z,97526.36
2022-11-23T02:12:14.524Z,97531.14
2022-11-23T02:17:19.088Z,97535.40
2022-11-23T02:22:38.012Z,97540.45
2022-11-23T02:27:46.776Z,97543.80
2022-11-23T02:32:49.176Z,97540.42
2022-11-23T02:37:53.799Z,97540.73
2022-11-23T02:42:55.727Z,97542.44
2022-11-23T02:47:57.556Z,97539.22
2022-11-23T02:52:59.435Z,97541.60
2022-11-23T02:58:01.890Z,97543.36
2022-11-23T03:03:04.952Z,97537.88
2022-11-23T03:08:08.050Z,97534.94
2022-11-23T03:13:09.988Z,97536.20
2022-11-23T03:18:13.623Z,97535.34
2022-11-23T03:23:15.582Z,97534.70
2022-11-23T03:28:19.122Z,97531.52
2022-11-23T03:33:21.510Z,97537.35
2022-11-23T03:38:23.889Z,97538.70
2022-11-23T03:43:26.367Z,97539.58
2022-11-23T03:48:28.250Z,97532.32
2022-11-23T03:53:30.145Z,97530.54
2022-11-23T03:58:32.106Z,97527.48
2022-11-23T04:03:34.517Z,97518.09
2022-11-23T04:08:56.203Z,97520.70
2022-11-23T04:14:19.695Z,97514.09
2022-11-23T04:19:22.996Z,97515.91
2022-11-23T04:24:24.923Z,97518.45
2022-11-23T04:29:28.625Z,97511.73
2022-11-23T04:34:31.387Z,97517.11
2022-11-23T04:39:35.360Z,97525.75
2022-11-23T04:45:03.831Z,97523.63
2022-11-23T04:50:06.434Z,97520.68
2022-11-23T04:55:09.059Z,97525.23
2022-11-23T05:00:15.832Z,97530.52
2022-11-23T05:05:18.301Z,97530.35
2022-11-23T05:10:20.232Z,97522.95
2022-11-23T05:15:22.628Z,97530.82
2022-11-23T05:20:25.391Z,97537.77
2022-11-23T05:25:27.580Z,97533.23
2022-11-23T05:30:36.622Z,97529.55
2022-11-23T05:35:39.302Z,97526.02
2022-11-23T05:40:41.183Z,97526.91
2022-11-23T05:45:43.721Z,97528.88
2022-11-23T05:50:46.368Z,97522.52
2022-11-23T05:56:08.292Z,97528.98
2022-11-23T06:01:16.826Z,97535.80
2022-11-23T06:06:19.164Z,97542.19
2022-11-23T06:11:21.063Z,97542.42
2022-11-23T06:16:23.147Z,97549.37
2022-11-23T06:21:34.008Z,97553.02
2022-11-23T06:26:36.106Z,97549.03
2022-11-23T06:31:39.035Z,97550.32
2022-11-23T06:36:41.107Z,97559.98
2022-11-23T06:41:43.607Z,97574.13
2022-11-23T06:46:45.790Z,97571.51
2022-11-23T06:51:48.231Z,97565.10
2022-11-23T06:56:50.091Z,97558.60
2022-11-23T07:01:52.379Z,97567.70
2022-11-23T07:06:54.836Z,97567.45
2022-11-23T07:12:05.899Z,97565.10
2022-11-23T07:17:07.853Z,97569.13
2022-11-23T07:22:12.916Z,97573.77
2022-11-23T07:27:17.318Z,97576.19
2022-11-23T07:32:19.555Z,97584.41
2022-11-23T07:37:21.642Z,97592.67
2022-11-23T07:42:33.003Z,97591.56
2022-11-23T07:47:36.980Z,97592.92
2022-11-23T07:52:40.563Z,97597.24
2022-11-23T07:57:42.344Z,97593.34
2022-11-23T08:03:04.096Z,97602.39
2022-11-23T08:08:06.064Z,97608.74
2022-11-23T08:13:07.860Z,97612.53
2022-11-23T08:18:10.078Z,97615.58
2022-11-23T08:23:11.903Z,97608.81
2022-11-23T08:28:13.800Z,97592.45
2022-11-23T08:33:15.975Z,97585.80
2022-11-23T08:38:17.818Z,97584.64
2022-11-23T08:43:19.635Z,97585.85
2022-11-23T08:48:21.560Z,97585.42
2022-11-23T08:53:23.359Z,97586.10
2022-11-23T08:58:25.186Z,97585.99
2022-11-23T09:03:27.150Z,97586.46
2022-11-23T09:08:29.263Z,97584.61
2022-11-23T09:13:31.103Z,97579.68
2022-11-23T09:18:36.697Z,97571.00
2022-11-23T09:23:38.652Z,97567.86
2022-11-23T09:28:44.673Z,97561.08
2022-11-23T09:33:47.102Z,97562.27
2022-11-23T09:38:56.635Z,97565.89
2022-11-23T09:44:35.664Z,97562.80
2022-11-23T09:50:15.915Z,97557.91
2022-11-23T09:55:30.657Z,97555.49
2022-11-23T10:00:39.019Z,97556.04
2022-11-23T10:05:41.021Z,97547.16
2022-11-23T10:11:29.633Z,97543.18
2022-11-23T10:16:45.397Z,97530.24
2022-11-23T10:21:47.204Z,97523.92
2022-11-23T10:26:50.277Z,97512.96
2022-11-23T10:31:56.979Z,97511.23
2022-11-23T10:36:59.340Z,97509.04
2022-11-23T10:42:09.916Z,97504.64
2022-11-23T10:47:11.703Z,97502.17
2022-11-23T10:52:29.938Z,97501.15
2022-11-23T10:57:42.450Z,97503.04
2022-11-23T11:02:47.678Z,97503.49
2022-11-23T11:07:49.725Z,97497.55
2022-11-23T11:12:51.964Z,97493.84
2022-11-23T11:17:58.650Z,97489.17
2022-11-23T11:23:04.536Z,97485.17
2022-11-23T11:28:42.969Z,97487.54
2022-11-23T11:34:14.463Z,97486.66
2022-11-23T11:39:28.097Z,97486.70
2022-11-23T11:44:36.357Z,97490.62
2022-11-23T11:49:45.561Z,97492.88
2022-11-23T11:55:04.609Z,97492.34
2022-11-23T12:00:13.499Z,97489.52
2022-11-23T12:05:25.032Z,97486.94
2022-11-23T12:10:35.548Z,97494.65
2022-11-23T12:15:50.575Z,97504.12
2022-11-23T12:21:06.788Z,97510.45
2022-11-23T12:26:42.606Z,97508.84
2022-11-23T12:31:50.724Z,97516.40
2022-11-23T12:37:05.255Z,97521.11
2022-11-23T12:42:18.303Z,97521.79
2022-11-23T12:47:41.202Z,97523.93
2022-11-23T12:53:17.643Z,97532.41
2022-11-23T12:58:27.511Z,97527.98
2022-11-23T13:03:59.556Z,97533.63
2022-11-23T13:09:35.958Z,97539.25
2022-11-23T13:14:49.697Z,97538.45
2022-11-23T13:20:28.713Z,97546.34
2022-11-23T13:25:30.633Z,97545.80
2022-11-23T13:31:15.028Z,97548.34
2022-11-23T13:36:07.452Z,97541.03
2022-11-23T13:41:34.589Z,97534.27
2022-11-23T13:46:37.298Z,97537.34
2022-11-23T13:51:39.214Z,97537.49
2022-11-23T13:56:45.128Z,97548.42
2022-11-23T14:02:12.678Z,97550.72
2022-11-23T14:07:20.704Z,97557.79
2022-11-23T14:12:46.911Z,97554.84
2022-11-23T14:18:51.094Z,97561.56
2022-11-23T14:24:33.305Z,97562.95
2022-11-23T14:30:05.530Z,97565.36
2022-11-23T14:35:40.630Z,97568.02
2022-11-23T14:41:21.556Z,97568.79
2022-11-23T14:46:25.934Z,97569.34
2022-11-23T14:51:28.778Z,97574.02
2022-11-23T14:56:38.027Z,97576.45
2022-11-23T15:01:47.189Z,97576.88
2022-11-23T15:06:53.444Z,97572.60
2022-11-23T15:12:07.271Z,97587.11
2022-11-23T15:17:17.574Z,97594.58
2022-11-23T15:22:20.494Z,97597.58
2022-11-23T15:27:28.591Z,97600.04
2022-11-23T15:32:34.368Z,97602.19
2022-11-23T15:37:44.651Z,97596.86
2022-11-23T15:42:49.827Z,97592.52
2022-11-23T15:47:51.628Z,97587.02
2022-11-23T15:52:53.490Z,97592.45
2022-11-23T15:57:56.796Z,97595.16
2022-11-23T16:03:27.150Z,97604.73
2022-11-23T16:08:29.665Z,97612.77
2022-11-23T16:13:36.692Z,97608.48
2022-11-23T16:18:44.859Z,97605.45
2022-11-23T16:23:54.411Z,97607.81
2022-11-23T16:28:58.676Z,97609.98
2022-11-23T16:34:00.462Z,97617.38
2022-11-23T16:39:05.672Z,97619.69
2022-11-23T16:44:08.004Z,97621.06
2022-11-23T16:49:19.871Z,97627.20
2022-11-23T16:54:24.854Z,97633.73
2022-11-23T16:59:27.420Z,97633.39
2022-11-23T17:04:29.341Z,97639.28
2022-11-23T17:09:31.605Z,97636.27
2022-11-23T17:14:38.191Z,97639.92
2022-11-23T17:19:40.079Z,97642.82
2022-11-23T17:24:42.784Z,97642.50
2022-11-23T17:29:45.915Z,97635.58
2022-11-23T17:34:47.744Z,97626.34
2022-11-23T17:39:50.224Z,97630.45
2022-11-23T17:44:52.048Z,97631.27
2022-11-23T17:49:53.959Z,97632.02
2022-11-23T17:54:55.775Z,97626.95
2022-11-23T18:00:01.984Z,97627.05
2022-11-23T18:05:19.726Z,97628.91
2022-11-23T18:10:23.620Z,97628.91
2022-11-23T18:15:25.396Z,97628.00
2022-11-23T18:20:27.202Z,97635.25
2022-11-23T18:25:29.114Z,97641.43
2022-11-23T18:30:31.024Z,97648.58
2022-11-23T18:35:32.825Z,97644.76
2022-11-23T18:40:34.728Z,97653.73
2022-11-23T18:45:36.585Z,97651.92
2022-11-23T18:50:38.389Z,97651.54
2022-11-23T18:55:40.213Z,97654.17
2022-11-23T19:00:42.404Z,97653.97
2022-11-23T19:05:44.238Z,97644.98
2022-11-23T19:10:46.402Z,97651.15
2022-11-23T19:15:48.268Z,97648.35
2022-11-23T19:20:50.111Z,97649.51
2022-11-23T19:25:51.980Z,97642.41
2022-11-23T19:30:53.865Z,97647.58
2022-11-23T19:35:55.676Z,97648.73
2022-11-23T19:40:57.501Z,97643.83
2022-11-23T19:46:01.789Z,97645.58
2022-11-23T19:51:04.893Z,97648.57
2022-11-23T19:56:15.428Z,97648.01
2022-11-23T20:01:19.251Z,97648.30
2022-11-23T20:06:26.373Z,97650.11
2022-11-23T20:11:30.440Z,97653.17
2022-11-23T20:16:33.158Z,97657.66
2022-11-23T20:21:37.017Z,97664.79
2022-11-23T20:26:39.791Z,97668.09
2022-11-23T20:31:41.865Z,97664.53
2022-11-23T20:36:43.853Z,97662.63
2022-11-23T20:41:46.019Z,97669.20
2022-11-23T20:47:04.075Z,97673.88
2022-11-23T20:52:06.190Z,97675.82
2022-11-23T20:57:07.983Z,97676.79
2022-11-23T21:02:09.911Z,97680.80
2022-11-23T21:07:12.122Z,97680.90
2022-11-23T21:12:52.585Z,97685.17
2022-11-23T21:17:54.395Z,97689.81
2022-11-23T21:22:56.598Z,97693.05
2022-11-23T21:27:58.447Z,97698.13
2022-11-23T21:33:00.386Z,97705.73
2022-11-23T21:38:02.191Z,97710.57
2022-11-23T21:43:04.390Z,97717.23
2022-11-23T21:48:07.922Z,97719.16
2022-11-23T21:53:09.777Z,97725.05
2022-11-23T21:58:11.956Z,97728.23
2022-11-23T22:03:13.864Z,97723.23
2022-11-23T22:08:31.057Z,97721.01
2022-11-23T22:13:39.810Z,97717.35
2022-11-23T22:18:41.997Z,97721.85
2022-11-23T22:23:44.923Z,97721.20
2022-11-23T22:28:48.710Z,97714.48
2022-11-23T22:33:53.188Z,97720.14
2022-11-23T22:39:03.105Z,97722.98
2022-11-23T22:44:07.634Z,97723.85
2022-11-23T22:49:09.614Z,97717.14
2022-11-23T22:54:11.428Z,97719.74
2022-11-23T22:59:13.308Z,97720.61
2022-11-23T23:04:15.159Z,97720.84
2022-11-23T23:09:17.260Z,97722.44
2022-11-23T23:14:19.095Z,97720.50
2022-11-23T23:19:21.620Z,97719.54
2022-11-23T23:24:23.475Z,97716.66
2022-11-23T23:29:25.442Z,97721.67
2022-11-23T23:34:27.265Z,97724.06
2022-11-23T23:39:29.139Z,97721.12
2022-11-23T23:44:31.406Z,97722.78
2022-11-23T23:49:34.604Z,97729.91
2022-11-23T23:54:36.593Z,97730.70
2022-11-23T23:59:38.500Z,97737.20
